createdAt,value
2019-04-30T05:02:45.623Z,10.70
2019-04-30T06:33:40.463Z,14.50
2019-04-30T06:36:25.541Z,15.50
2019-04-30T06:38:58.941Z,14.90
2019-04-30T06:41:31.755Z,14.30
2019-04-30T08:45:10.156Z,16.50
2019-04-30T08:47:39.995Z,17.20
2019-04-30T08:50:21.770Z,16.80
2019-04-30T08:52:59.815Z,16.40
2019-04-30T08:58:09.399Z,14.50
2019-04-30T09:00:32.189Z,14.40
2019-04-30T09:03:02.302Z,15.60
2019-04-30T09:05:50.837Z,15.90
2019-04-30T09:10:49.970Z,15.30
2019-04-30T09:15:50.818Z,14.40
2019-04-30T09:18:21.081Z,14.50
2019-04-30T09:20:53.091Z,14.90
2019-04-30T09:23:22.967Z,14.50
2019-04-30T09:25:52.715Z,14.60
2019-04-30T09:28:23.738Z,14.80
2019-04-30T09:30:55.139Z,14.80
2019-04-30T11:29:53.285Z,17.90
2019-04-30T11:34:55.077Z,18.20
2019-04-30T11:37:25.474Z,18.50
2019-04-30T11:40:34.312Z,19.10
2019-04-30T11:43:01.132Z,18.90
2019-04-30T11:46:18.692Z,18.20
2019-04-30T11:48:49.208Z,17.50
2019-04-30T11:51:21.591Z,17.50
2019-04-30T11:53:59.178Z,17.50
2019-04-30T11:56:33.026Z,17.70
2019-04-30T11:59:19.558Z,17.80
2019-04-30T12:01:52.010Z,17.60
2019-04-30T12:04:36.328Z,17.70
2019-04-30T12:07:16.144Z,17.90
2019-04-30T12:12:43.568Z,18.90
2019-04-30T12:15:16.357Z,18.30
2019-04-30T12:17:47.416Z,18.20
2019-04-30T12:40:48.338Z,18.50
2019-04-30T12:43:18.238Z,18.90
2019-04-30T12:48:41.234Z,18.10
2019-04-30T12:51:45.603Z,18.50
2019-04-30T12:54:14.462Z,18.70
2019-04-30T12:57:02.064Z,18.80
2019-04-30T12:59:31.858Z,18.70
2019-04-30T13:02:09.148Z,18.80
2019-04-30T13:04:40.272Z,18.00
2019-04-30T13:07:12.130Z,18.20
2019-04-30T13:09:45.247Z,18.20
2019-04-30T13:12:19.003Z,18.30
2019-04-30T13:14:52.465Z,18.50
2019-04-30T13:17:23.242Z,19.30
2019-04-30T13:19:56.281Z,19.00
2019-04-30T13:24:59.597Z,18.60
2019-04-30T13:27:33.661Z,18.80
2019-04-30T13:30:15.113Z,18.80
2019-04-30T13:41:23.317Z,19.30
2019-04-30T13:44:04.559Z,19.60
2019-04-30T13:46:34.505Z,19.40
2019-04-30T13:49:04.321Z,19.40
2019-04-30T13:51:34.247Z,19.00
2019-04-30T13:54:06.303Z,18.70
2019-04-30T13:56:36.656Z,18.60
2019-04-30T13:59:10.869Z,18.80
2019-04-30T14:01:44.748Z,18.70
2019-04-30T14:04:27.304Z,18.90
2019-04-30T14:07:16.050Z,19.00
2019-04-30T14:09:48.680Z,18.80
2019-04-30T14:15:48.251Z,19.40
2019-04-30T14:18:28.583Z,19.40
2019-04-30T14:21:19.293Z,19.30
2019-04-30T14:23:50.675Z,19.60
2019-04-30T14:26:20.730Z,19.30
2019-04-30T14:34:39.886Z,19.00
2019-04-30T14:37:11.034Z,18.90
2019-04-30T14:39:42.867Z,18.80
2019-04-30T14:42:13.413Z,18.80
2019-04-30T14:44:44.758Z,18.80
2019-04-30T14:50:10.968Z,19.10
2019-04-30T14:52:49.459Z,19.00
2019-04-30T14:56:08.505Z,19.20
2019-04-30T14:58:49.557Z,19.10
2019-04-30T15:01:29.288Z,19.00
2019-04-30T15:04:01.732Z,19.10
2019-04-30T15:06:31.612Z,18.80
2019-04-30T15:09:02.318Z,18.70
2019-04-30T15:11:36.555Z,18.60
2019-04-30T15:14:07.120Z,18.40
2019-04-30T15:16:40.035Z,18.50
2019-04-30T15:19:11.244Z,18.50
2019-04-30T15:21:41.091Z,18.50
2019-04-30T15:24:26.624Z,18.70
2019-04-30T15:30:00.740Z,18.60
2019-04-30T15:32:39.628Z,18.60
2019-04-30T15:35:25.797Z,18.50
2019-04-30T15:38:00.154Z,18.60
2019-04-30T15:40:36.094Z,18.50
2019-04-30T15:43:10.183Z,18.50
2019-04-30T15:45:45.245Z,18.40
2019-04-30T15:48:19.731Z,18.30
2019-04-30T15:51:09.246Z,18.30
2019-04-30T15:53:45.439Z,18.30
2019-04-30T15:56:21.073Z,18.30
2019-04-30T16:01:53.402Z,18.30
2019-04-30T16:04:39.660Z,18.40
2019-04-30T16:07:11.124Z,18.30
2019-04-30T16:09:52.025Z,18.30
2019-04-30T16:12:32.104Z,18.30
2019-04-30T16:15:05.179Z,18.30
2019-04-30T16:17:49.270Z,18.20
2019-04-30T16:20:40.338Z,18.10
2019-04-30T16:23:13.130Z,18.10
2019-04-30T16:26:02.201Z,18.10
2019-04-30T16:28:39.062Z,18.10
2019-04-30T16:31:39.156Z,18.00
2019-04-30T16:34:16.945Z,18.00
2019-04-30T16:36:49.696Z,17.90
2019-04-30T16:39:22.020Z,18.00
2019-04-30T16:41:53.087Z,17.90
2019-04-30T16:44:24.605Z,17.80
2019-04-30T16:47:13.639Z,17.80
2019-04-30T16:49:40.692Z,17.70
2019-04-30T16:52:18.984Z,17.70
2019-04-30T16:54:54.885Z,17.60
2019-04-30T16:57:32.837Z,17.60
2019-04-30T17:00:30.845Z,17.50
2019-04-30T17:03:09.109Z,17.50
2019-04-30T17:05:44.603Z,17.40
2019-04-30T17:08:39.166Z,17.40
2019-04-30T17:11:28.282Z,17.30
2019-04-30T17:14:02.366Z,17.30
2019-04-30T17:16:32.415Z,17.40
2019-04-30T17:19:02.605Z,17.30
2019-04-30T17:21:33.677Z,17.30
2019-04-30T17:24:08.666Z,17.30
2019-04-30T17:26:39.193Z,17.20
2019-04-30T17:29:12.200Z,17.10
2019-04-30T17:31:48.765Z,17.00
2019-04-30T17:34:18.882Z,16.90
2019-04-30T17:36:50.758Z,16.80
2019-04-30T17:39:24.778Z,16.70
2019-04-30T17:42:07.905Z,16.70
2019-04-30T17:44:53.796Z,16.60
2019-04-30T17:47:22.313Z,16.50
2019-04-30T17:49:54.355Z,16.40
2019-04-30T17:52:30.797Z,16.30
2019-04-30T17:55:04.961Z,16.30
2019-04-30T17:57:36.313Z,16.20
2019-04-30T18:00:16.872Z,16.10
2019-04-30T18:02:41.241Z,16.10
2019-04-30T18:08:05.283Z,15.90
2019-04-30T18:10:40.117Z,15.80
2019-04-30T18:13:10.260Z,15.70
2019-04-30T18:15:40.379Z,15.70
2019-04-30T18:18:18.488Z,15.80
2019-04-30T18:20:59.562Z,15.70
2019-04-30T18:23:45.629Z,15.60
2019-04-30T18:26:18.115Z,15.60
2019-04-30T18:28:51.032Z,15.60
2019-04-30T18:31:22.470Z,15.50
2019-04-30T18:33:54.355Z,15.60
2019-04-30T18:36:25.107Z,15.50
2019-04-30T18:38:59.024Z,15.50
2019-04-30T18:41:31.982Z,15.50
2019-04-30T18:44:02.403Z,15.60
2019-04-30T18:46:32.777Z,15.60
2019-04-30T18:49:15.688Z,15.70
2019-04-30T18:51:49.253Z,15.60
2019-04-30T18:54:20.943Z,15.60
2019-04-30T18:56:51.166Z,15.60
2019-04-30T18:59:21.345Z,15.70
2019-04-30T19:01:52.104Z,15.70
2019-04-30T19:04:22.157Z,15.60
2019-04-30T19:06:53.650Z,15.60
2019-04-30T19:09:50.593Z,15.60
2019-04-30T19:12:56.129Z,15.50
2019-04-30T19:16:14.708Z,15.50
2019-04-30T19:18:51.547Z,15.40
2019-04-30T19:21:27.761Z,15.40
2019-04-30T19:23:58.685Z,15.30
2019-04-30T19:26:30.431Z,15.30
2019-04-30T19:29:00.495Z,15.20
2019-04-30T19:31:34.256Z,15.20
2019-04-30T19:34:06.079Z,15.20
2019-04-30T19:36:40.528Z,15.30
2019-04-30T19:39:13.687Z,15.20
2019-04-30T19:41:43.814Z,15.10
2019-04-30T19:44:20.854Z,14.90
2019-04-30T19:46:53.237Z,14.90
2019-04-30T19:49:43.558Z,14.90
2019-04-30T19:52:13.515Z,14.90
2019-04-30T19:54:43.658Z,14.80
2019-04-30T19:57:13.710Z,14.70
2019-04-30T19:59:44.006Z,14.70
2019-04-30T20:02:14.803Z,14.70
2019-04-30T20:04:44.761Z,14.60
2019-04-30T20:07:15.146Z,14.50
2019-04-30T20:09:58.499Z,14.50
2019-04-30T20:12:18.813Z,14.50
2019-04-30T20:14:49.601Z,14.40
2019-04-30T20:17:21.477Z,14.50
2019-04-30T20:19:52.337Z,14.50
2019-04-30T20:22:22.437Z,14.60
2019-04-30T20:24:52.721Z,14.50
2019-04-30T20:27:22.621Z,14.50
2019-04-30T20:29:52.506Z,14.30
2019-04-30T20:32:33.834Z,14.20
2019-04-30T20:34:59.775Z,14.10
2019-04-30T20:37:30.284Z,14.10
2019-04-30T20:40:12.254Z,14.10
2019-04-30T20:42:42.379Z,14.10
2019-04-30T20:45:12.626Z,14.00
2019-04-30T20:47:42.550Z,13.90
2019-04-30T20:50:12.799Z,13.80
2019-04-30T20:52:43.595Z,13.80
2019-04-30T20:55:14.104Z,13.70
2019-04-30T20:57:44.667Z,13.60
2019-04-30T21:00:15.930Z,13.60
2019-04-30T21:02:48.620Z,13.50
2019-04-30T21:05:18.549Z,13.40
2019-04-30T21:07:48.352Z,13.40
2019-04-30T21:10:19.954Z,13.30
2019-04-30T21:12:49.893Z,13.20
2019-04-30T21:15:20.328Z,13.20
2019-04-30T21:17:50.495Z,13.20
2019-04-30T21:20:20.626Z,13.10
2019-04-30T21:22:50.557Z,13.00
2019-04-30T21:25:20.636Z,12.90
2019-04-30T21:27:50.834Z,12.90
2019-04-30T21:30:21.210Z,12.70
2019-04-30T21:33:13.003Z,12.70
2019-04-30T21:35:53.246Z,12.70
2019-04-30T21:38:23.321Z,12.60
2019-04-30T21:40:53.409Z,12.60
2019-04-30T21:43:24.452Z,12.60
2019-04-30T21:45:54.444Z,12.50
2019-04-30T21:48:24.482Z,12.50
2019-04-30T21:50:54.414Z,12.40
2019-04-30T21:53:24.319Z,12.40
2019-04-30T21:55:54.349Z,12.40
2019-04-30T21:58:24.883Z,12.20
2019-04-30T22:01:16.388Z,12.10
2019-04-30T22:03:47.044Z,12.10
2019-04-30T22:06:17.253Z,12.00
2019-04-30T22:08:48.606Z,12.00
2019-04-30T22:11:19.770Z,11.90
2019-04-30T22:13:53.086Z,11.90
2019-04-30T22:16:23.302Z,11.70
2019-04-30T22:18:55.725Z,11.70
2019-04-30T22:21:25.885Z,11.60
2019-04-30T22:23:56.431Z,11.60
2019-04-30T22:26:26.433Z,11.60
2019-04-30T22:28:56.243Z,11.60
2019-04-30T22:31:26.032Z,11.40
2019-04-30T22:33:55.906Z,11.40
2019-04-30T22:36:39.950Z,11.40
2019-04-30T22:39:29.950Z,11.40
2019-04-30T22:42:34.447Z,11.40
2019-04-30T22:45:08.176Z,11.40
2019-04-30T22:47:37.985Z,11.30
2019-04-30T22:50:11.067Z,11.30
2019-04-30T22:52:40.901Z,11.20
2019-04-30T22:55:10.909Z,11.20
2019-04-30T22:57:40.739Z,11.20
2019-04-30T23:00:15.054Z,11.10
2019-04-30T23:03:03.715Z,11.10
2019-04-30T23:05:33.494Z,11.00
2019-04-30T23:08:03.894Z,10.90
2019-04-30T23:10:33.719Z,10.90
2019-04-30T23:13:03.574Z,10.80
2019-04-30T23:15:33.453Z,10.80
2019-04-30T23:18:03.455Z,10.70
2019-04-30T23:20:33.260Z,10.60
2019-04-30T23:23:03.298Z,10.60
2019-04-30T23:25:33.197Z,10.60
2019-04-30T23:28:03.056Z,10.50
2019-04-30T23:30:32.923Z,10.40
2019-04-30T23:33:02.837Z,10.30
2019-04-30T23:35:32.689Z,10.30
2019-04-30T23:38:02.535Z,10.20
2019-04-30T23:40:47.400Z,10.10
2019-04-30T23:43:17.379Z,10.10
2019-04-30T23:45:47.190Z,10.20
2019-04-30T23:48:17.131Z,10.10
2019-04-30T23:50:47.078Z,10.10
2019-04-30T23:53:17.007Z,10.00
2019-04-30T23:55:46.846Z,10.00
2019-04-30T23:58:16.621Z,9.90
